Terminal Aerodrome Forecast
Issued by NWS

Current Version | Previous Version | Text Only | Print | Product List | Glossary On
Versions: 1 2 3 4 5 6 7 8 9 10 11 12
000
FTUS45 KREV 022320
TAFMMH
TAF
KMMH 022320Z 0300/0324 07015G25KT P6SM FEW200
     FM030400 29008KT P6SM SKC
     FM031500 19005KT P6SM SKC=

USA.gov is the U.S. government's official web portal to all federal, state and local government web resources and services.